Time;durP1;ratioP1;P1;durP2;ratioP2;P2;SDS_P1;SDS_P2;PMS_P1;PMS_P2;Temp;Humidity;BMP_temperature;BMP_pressure;BME280_temperature;BME280_humidity;BME280_pressure;Samples;Min_cycle;Max_cycle;Signal;HPM_P1;HPM_P2
2022/03/04 00:00:09;;;;;;;;;;;;;;;;;;1020307;28;3764;-74
2022/03/04 00:00:59;;;;;;;;;;;;;;;;;;1020259;28;3947;-75
2022/03/04 00:01:30;;;;;;;;;;;;;;;;;;1021270;28;2498;-75
2022/03/04 00:02:00;;;;;;;;;;;;;;;;;;1020429;28;3972;-76
2022/03/04 00:02:30;;;;;;;;;;;;;;;;;;1021614;28;2739;-75
2022/03/04 00:03:01;;;;;;;;;;;;;;;;;;1021496;28;3983;-74
2022/03/04 00:03:31;;;;;;;;;;;;;;;;;;1023356;28;1687;-75
2022/03/04 00:04:02;;;;;;;;;;;;;;;;;;1015993;29;4013;-74
2022/03/04 00:04:37;;;;;;;;;;;;;;;;;;1016894;29;2860;-75
2022/03/04 00:05:07;;;;;;;;;;;;;;;;;;1013537;29;3880;-74
2022/03/04 00:05:38;;;;;;;;;;;;;;;;;;1015872;29;1910;-75
2022/03/04 00:06:08;;;;;;;;;;;;;;;;;;1017262;29;3983;-76
2022/03/04 00:06:39;;;;;;;;;;;;;;;;;;1017776;29;4045;-75
2022/03/04 00:07:09;;;;;;;;;;;;;;;;;;1021533;29;2120;-75
2022/03/04 00:07:39;;;;;;;;;;;;;;;;;;1021753;28;3814;-75
2022/03/04 00:08:10;;;;;;;;;;;;;;;;;;1021608;28;2367;-75
2022/03/04 00:08:40;;;;;;;;;;;;;;;;;;1022206;29;4044;-74
2022/03/04 00:09:17;;;;;;;;;;;;;;;;;;1021960;28;2110;-75
2022/03/04 00:09:47;;;;;;;;;;;;;;;;;;1020675;28;3866;-75
2022/03/04 00:10:18;;;;;;;;;;;;;;;;;;1021526;29;2330;-75
2022/03/04 00:10:48;;;;;;;;;;;;;;;;;;1021235;28;3820;-75
2022/03/04 00:11:18;;;;;;;;;;;;;;;;;;1022563;29;3204;-75
2022/03/04 00:11:49;;;;;;;;;;;;;;;;;;1021684;28;3869;-74
2022/03/04 00:12:19;;;;;;;;;;;;;;;;;;1022786;29;1614;-75
2022/03/04 00:12:50;;;;;;;;;;;;;;;;;;1020121;29;4019;-74
2022/03/04 00:13:20;;;;;;;;;;;;;;;;;;1022432;29;1281;-75
2022/03/04 00:13:50;;;;;;;;;;;;;;;;;;1021791;28;3991;-76
2022/03/04 00:14:21;;;;;;;;;;;;;;;;;;1023309;28;1823;-75
2022/03/04 00:14:51;;;;;;;;;;;;;;;;;;1020764;29;4061;-75
2022/03/04 00:15:21;;;;;;;;;;;;;;;;;;1020674;28;3254;-75
2022/03/04 00:15:52;;;;;;;;;;;;;;;;;;1021650;28;3818;-75
2022/03/04 00:16:22;;;;;;;;;;;;;;;;;;1020277;28;2332;-74
2022/03/04 00:16:53;;;;;;;;;;;;;;;;;;1019992;28;4182;-74
2022/03/04 00:17:23;;;;;;;;;;;;;;;;;;1022085;28;2835;-75
2022/03/04 00:17:53;;;;;;;;;;;;;;;;;;1021953;28;3825;-75
2022/03/04 00:18:24;;;;;;;;;;;;;;;;;;1017103;29;2933;-75
2022/03/04 00:19:06;;;;;;;;;;;;;;;;;;1017621;29;3874;-75
2022/03/04 00:19:36;;;;;;;;;;;;;;;;;;1018288;29;2492;-75
2022/03/04 00:20:08;;;;;;;;;;;;;;;;;;1017772;28;3851;-75
2022/03/04 00:20:38;;;;;;;;;;;;;;;;;;1022313;29;2764;-75
2022/03/04 00:21:09;;;;;;;;;;;;;;;;;;1021857;28;3859;-74
2022/03/04 00:21:44;;;;;;;;;;;;;;;;;;1020568;28;3810;-74
2022/03/04 00:22:15;;;;;;;;;;;;;;;;;;1020910;28;3339;-74
2022/03/04 00:22:45;;;;;;;;;;;;;;;;;;1021872;28;3844;-75
2022/03/04 00:23:15;;;;;;;;;;;;;;;;;;1021876;28;2195;-76
2022/03/04 00:23:46;;;;;;;;;;;;;;;;;;1020647;28;3815;-75
2022/03/04 00:24:17;;;;;;;;;;;;;;;;;;1021491;28;2876;-74
2022/03/04 00:24:47;;;;;;;;;;;;;;;;;;1016885;29;3932;-75
2022/03/04 00:25:19;;;;;;;;;;;;;;;;;;1016963;29;2641;-76
2022/03/04 00:25:49;;;;;;;;;;;;;;;;;;1017072;29;5673;-75
2022/03/04 00:26:20;;;;;;;;;;;;;;;;;;1017597;29;2873;-75
2022/03/04 00:26:50;;;;;;;;;;;;;;;;;;1022433;28;3821;-75
2022/03/04 00:27:27;;;;;;;;;;;;;;;;;;1022565;28;2205;-75
2022/03/04 00:27:57;;;;;;;;;;;;;;;;;;1018027;29;4118;-75
2022/03/04 00:28:27;;;;;;;;;;;;;;;;;;1017735;29;3015;-75
2022/03/04 00:28:58;;;;;;;;;;;;;;;;;;1016649;29;3868;-74
2022/03/04 00:29:28;;;;;;;;;;;;;;;;;;1019843;29;2255;-76
2022/03/04 00:29:59;;;;;;;;;;;;;;;;;;1021015;28;3874;-75
2022/03/04 00:30:29;;;;;;;;;;;;;;;;;;1020213;28;2731;-75
2022/03/04 00:30:59;;;;;;;;;;;;;;;;;;1019390;28;3836;-74
2022/03/04 00:31:30;;;;;;;;;;;;;;;;;;1021716;28;2764;-75
2022/03/04 00:32:00;;;;;;;;;;;;;;;;;;1021084;28;3836;-75
2022/03/04 00:32:31;;;;;;;;;;;;;;;;;;1023348;28;2452;-75
2022/03/04 00:33:01;;;;;;;;;;;;;;;;;;1017065;29;3858;-75
2022/03/04 00:33:31;;;;;;;;;;;;;;;;;;1018836;29;2829;-75
2022/03/04 00:34:06;;;;;;;;;;;;;;;;;;1014946;29;3983;-74
2022/03/04 00:34:38;;;;;;;;;;;;;;;;;;1019152;29;2449;-75
2022/03/04 00:35:08;;;;;;;;;;;;;;;;;;1021009;28;3985;-75
2022/03/04 00:35:39;;;;;;;;;;;;;;;;;;1021770;29;4059;-75
2022/03/04 00:36:09;;;;;;;;;;;;;;;;;;1021463;28;3166;-75
2022/03/04 00:36:40;;;;;;;;;;;;;;;;;;1021247;28;3874;-75
2022/03/04 00:37:10;;;;;;;;;;;;;;;;;;1022010;28;2482;-74
2022/03/04 00:37:40;;;;;;;;;;;;;;;;;;1021494;28;3838;-74
2022/03/04 00:38:11;;;;;;;;;;;;;;;;;;1022309;28;2662;-74
2022/03/04 00:38:41;;;;;;;;;;;;;;;;;;1022127;28;3823;-75
2022/03/04 00:39:12;;;;;;;;;;;;;;;;;;1021735;29;2754;-74
2022/03/04 00:39:42;;;;;;;;;;;;;;;;;;1021305;28;4038;-74
2022/03/04 00:40:14;;;;;;;;;;;;;;;;;;1022614;28;2754;-75
2022/03/04 00:40:44;;;;;;;;;;;;;;;;;;1021609;28;3829;-75
2022/03/04 00:41:16;;;;;;;;;;;;;;;;;;1020865;28;2808;-75
2022/03/04 00:41:46;;;;;;;;;;;;;;;;;;1022022;29;3815;-75
2022/03/04 00:42:16;;;;;;;;;;;;;;;;;;1022124;28;2422;-75
2022/03/04 00:42:46;;;;;;;;;;;;;;;;;;1022406;28;3831;-75
2022/03/04 00:43:17;;;;;;;;;;;;;;;;;;1022230;28;3450;-75
2022/03/04 00:43:48;;;;;;;;;;;;;;;;;;1020614;28;3831;-75
2022/03/04 00:44:18;;;;;;;;;;;;;;;;;;1020506;28;3026;-75
2022/03/04 00:44:48;;;;;;;;;;;;;;;;;;1022580;28;5245;-75
2022/03/04 00:45:18;;;;;;;;;;;;;;;;;;1020682;28;2874;-74
2022/03/04 00:45:50;;;;;;;;;;;;;;;;;;1020666;28;4320;-75
2022/03/04 00:46:21;;;;;;;;;;;;;;;;;;1017449;29;2766;-75
2022/03/04 00:46:51;;;;;;;;;;;;;;;;;;1017483;29;4208;-75
2022/03/04 00:47:21;;;;;;;;;;;;;;;;;;1018369;29;2163;-75
2022/03/04 00:47:52;;;;;;;;;;;;;;;;;;1017941;29;4038;-75
2022/03/04 00:48:22;;;;;;;;;;;;;;;;;;1020570;28;2856;-75
2022/03/04 00:48:52;;;;;;;;;;;;;;;;;;1021415;28;3949;-75
2022/03/04 00:49:22;;;;;;;;;;;;;;;;;;1022382;28;2889;-75
2022/03/04 00:49:53;;;;;;;;;;;;;;;;;;1021393;28;3844;-75
2022/03/04 00:50:23;;;;;;;;;;;;;;;;;;1023409;28;1763;-75
2022/03/04 00:50:53;;;;;;;;;;;;;;;;;;1021457;28;3845;-75
2022/03/04 00:51:23;;;;;;;;;;;;;;;;;;1022201;28;2184;-74
2022/03/04 00:51:54;;;;;;;;;;;;;;;;;;1021561;28;3835;-74
2022/03/04 00:52:24;;;;;;;;;;;;;;;;;;1022806;28;1464;-74
2022/03/04 00:52:55;;;;;;;;;;;;;;;;;;1021673;28;3877;-75
2022/03/04 00:53:39;;;;;;;;;;;;;;;;;;1022738;28;1911;-75
2022/03/04 00:54:16;;;;;;;;;;;;;;;;;;1021267;28;3817;-75
2022/03/04 00:54:46;;;;;;;;;;;;;;;;;;1017652;29;4030;-75
2022/03/04 00:55:17;;;;;;;;;;;;;;;;;;1018209;29;2817;-76
2022/03/04 00:55:47;;;;;;;;;;;;;;;;;;1016075;29;4316;-75
2022/03/04 00:56:17;;;;;;;;;;;;;;;;;;1012804;29;3148;-75
2022/03/04 00:56:48;;;;;;;;;;;;;;;;;;1016222;28;3833;-75
2022/03/04 00:57:18;;;;;;;;;;;;;;;;;;1018165;29;1585;-75
2022/03/04 00:57:48;;;;;;;;;;;;;;;;;;1017927;29;3898;-75
2022/03/04 00:58:18;;;;;;;;;;;;;;;;;;1020529;28;3012;-75
2022/03/04 00:58:49;;;;;;;;;;;;;;;;;;1021159;29;3886;-74
2022/03/04 00:59:19;;;;;;;;;;;;;;;;;;1021937;28;2935;-75
2022/03/04 00:59:50;;;;;;;;;;;;;;;;;;1022050;28;3879;-74
2022/03/04 01:00:20;;;;;;;;;;;;;;;;;;1020987;28;2833;-75
2022/03/04 01:00:50;;;;;;;;;;;;;;;;;;1022119;28;4027;-75
2022/03/04 01:01:20;;;;;;;;;;;;;;;;;;1016576;29;3059;-76
2022/03/04 01:01:50;;;;;;;;;;;;;;;;;;1018464;29;3828;-74
2022/03/04 01:02:21;;;;;;;;;;;;;;;;;;1018255;29;1866;-74
2022/03/04 01:02:51;;;;;;;;;;;;;;;;;;1013781;29;4111;-75
2022/03/04 01:03:21;;;;;;;;;;;;;;;;;;1016437;29;2649;-75
2022/03/04 01:03:52;;;;;;;;;;;;;;;;;;1018295;29;3854;-75
2022/03/04 01:04:22;;;;;;;;;;;;;;;;;;1017478;29;2585;-75
2022/03/04 01:04:52;;;;;;;;;;;;;;;;;;1022443;28;3833;-75
2022/03/04 01:05:22;;;;;;;;;;;;;;;;;;1015593;29;2797;-75
2022/03/04 01:05:53;;;;;;;;;;;;;;;;;;1013737;29;4041;-75
2022/03/04 01:06:23;;;;;;;;;;;;;;;;;;1013951;29;2926;-74
2022/03/04 01:06:53;;;;;;;;;;;;;;;;;;1011956;29;3822;-75
2022/03/04 01:07:24;;;;;;;;;;;;;;;;;;1019064;29;1344;-75
2022/03/04 01:07:54;;;;;;;;;;;;;;;;;;1015677;29;3864;-74
2022/03/04 01:08:24;;;;;;;;;;;;;;;;;;1018749;29;2348;-75
2022/03/04 01:08:54;;;;;;;;;;;;;;;;;;1016673;29;4001;-75
2022/03/04 01:09:25;;;;;;;;;;;;;;;;;;1018179;29;2482;-75
2022/03/04 01:09:55;;;;;;;;;;;;;;;;;;1020736;28;3977;-75
2022/03/04 01:10:25;;;;;;;;;;;;;;;;;;1020612;28;2929;-74
2022/03/04 01:10:55;;;;;;;;;;;;;;;;;;1022001;28;3810;-75
2022/03/04 01:11:26;;;;;;;;;;;;;;;;;;1022081;28;2826;-75
2022/03/04 01:11:56;;;;;;;;;;;;;;;;;;1021431;29;4015;-75
2022/03/04 01:12:27;;;;;;;;;;;;;;;;;;1020973;28;3100;-74
2022/03/04 01:12:57;;;;;;;;;;;;;;;;;;1021423;28;3928;-75
2022/03/04 01:13:27;;;;;;;;;;;;;;;;;;1022151;28;2990;-75
2022/03/04 01:13:57;;;;;;;;;;;;;;;;;;1020503;28;3829;-75
2022/03/04 01:14:28;;;;;;;;;;;;;;;;;;1022582;28;3507;-75
2022/03/04 01:14:58;;;;;;;;;;;;;;;;;;1020363;29;3987;-75
2022/03/04 01:15:28;;;;;;;;;;;;;;;;;;1021127;28;3043;-75
2022/03/04 01:15:59;;;;;;;;;;;;;;;;;;1021203;28;3820;-75
2022/03/04 01:16:29;;;;;;;;;;;;;;;;;;1022453;28;2900;-75
2022/03/04 01:16:59;;;;;;;;;;;;;;;;;;1020603;28;3983;-75
2022/03/04 01:17:29;;;;;;;;;;;;;;;;;;1023315;28;2526;-75
2022/03/04 01:18:00;;;;;;;;;;;;;;;;;;1020999;28;3835;-75
2022/03/04 01:18:30;;;;;;;;;;;;;;;;;;1022552;28;1804;-75
2022/03/04 01:19:00;;;;;;;;;;;;;;;;;;1020144;28;3818;-74
2022/03/04 01:19:31;;;;;;;;;;;;;;;;;;1020872;28;3146;-75
2022/03/04 01:20:02;;;;;;;;;;;;;;;;;;1022063;28;4155;-74
2022/03/04 01:20:33;;;;;;;;;;;;;;;;;;1022315;28;1256;-74
2022/03/04 01:21:03;;;;;;;;;;;;;;;;;;1019863;28;3942;-75
2022/03/04 01:21:34;;;;;;;;;;;;;;;;;;1020781;28;3142;-75
2022/03/04 01:22:04;;;;;;;;;;;;;;;;;;1021926;28;3826;-75
2022/03/04 01:22:35;;;;;;;;;;;;;;;;;;1022091;29;2517;-75
2022/03/04 01:23:05;;;;;;;;;;;;;;;;;;1021647;28;3813;-75
2022/03/04 01:23:35;;;;;;;;;;;;;;;;;;1023191;28;1583;-75
2022/03/04 01:24:06;;;;;;;;;;;;;;;;;;1020956;29;3838;-75
2022/03/04 01:24:36;;;;;;;;;;;;;;;;;;1023463;28;2702;-75
2022/03/04 01:25:07;;;;;;;;;;;;;;;;;;1018237;29;3859;-75
2022/03/04 01:25:37;;;;;;;;;;;;;;;;;;1019894;29;1949;-75
2022/03/04 01:26:14;;;;;;;;;;;;;;;;;;1018629;29;3783;-75
2022/03/04 01:26:44;;;;;;;;;;;;;;;;;;1019273;28;3834;-75
2022/03/04 01:27:15;;;;;;;;;;;;;;;;;;1020393;28;2922;-74
2022/03/04 01:27:45;;;;;;;;;;;;;;;;;;1020445;28;3974;-75
2022/03/04 01:28:15;;;;;;;;;;;;;;;;;;1022052;29;2786;-75
2022/03/04 01:28:45;;;;;;;;;;;;;;;;;;1022787;28;3854;-75
2022/03/04 01:29:16;;;;;;;;;;;;;;;;;;1021387;28;2759;-76
2022/03/04 01:29:46;;;;;;;;;;;;;;;;;;1021711;28;4091;-75
2022/03/04 01:30:16;;;;;;;;;;;;;;;;;;1021010;28;3078;-75
2022/03/04 01:30:47;;;;;;;;;;;;;;;;;;1018762;29;3857;-75
2022/03/04 01:31:17;;;;;;;;;;;;;;;;;;1018496;29;2210;-75
2022/03/04 01:31:47;;;;;;;;;;;;;;;;;;1018104;29;3911;-76
2022/03/04 01:32:17;;;;;;;;;;;;;;;;;;1017455;29;2818;-75
2022/03/04 01:32:48;;;;;;;;;;;;;;;;;;1021709;28;3840;-76
2022/03/04 01:33:18;;;;;;;;;;;;;;;;;;1021688;28;2954;-75
2022/03/04 01:33:48;;;;;;;;;;;;;;;;;;1021525;28;3843;-75
2022/03/04 01:34:19;;;;;;;;;;;;;;;;;;1021357;28;3686;-76
2022/03/04 01:34:49;;;;;;;;;;;;;;;;;;1021634;28;4062;-74
2022/03/04 01:35:26;;;;;;;;;;;;;;;;;;1020641;28;2853;-75
2022/03/04 01:35:56;;;;;;;;;;;;;;;;;;1021041;28;3830;-75
2022/03/04 01:36:30;;;;;;;;;;;;;;;;;;1022939;28;1681;-75
2022/03/04 01:37:00;;;;;;;;;;;;;;;;;;1020683;28;3792;-75
2022/03/04 01:37:30;;;;;;;;;;;;;;;;;;1022384;28;2067;-75
2022/03/04 01:38:01;;;;;;;;;;;;;;;;;;1021122;28;3882;-75
2022/03/04 01:38:31;;;;;;;;;;;;;;;;;;1021936;28;2464;-75
2022/03/04 01:39:02;;;;;;;;;;;;;;;;;;1021972;28;3972;-75
2022/03/04 01:39:32;;;;;;;;;;;;;;;;;;1021347;28;2891;-74
2022/03/04 01:40:04;;;;;;;;;;;;;;;;;;1022292;29;3832;-75
2022/03/04 01:40:34;;;;;;;;;;;;;;;;;;1022281;28;3647;-75
2022/03/04 01:41:04;;;;;;;;;;;;;;;;;;1019681;28;3925;-76
2022/03/04 01:41:35;;;;;;;;;;;;;;;;;;1022161;28;2080;-75
2022/03/04 01:42:05;;;;;;;;;;;;;;;;;;1020321;28;3784;-75
2022/03/04 01:42:36;;;;;;;;;;;;;;;;;;1022289;28;2631;-75
2022/03/04 01:43:06;;;;;;;;;;;;;;;;;;1020730;28;3805;-75
2022/03/04 01:43:36;;;;;;;;;;;;;;;;;;1023118;28;2261;-74
2022/03/04 01:44:07;;;;;;;;;;;;;;;;;;1020139;28;3803;-76
2022/03/04 01:44:37;;;;;;;;;;;;;;;;;;1022700;28;2450;-75
2022/03/04 01:45:09;;;;;;;;;;;;;;;;;;1021164;28;3789;-75
2022/03/04 01:45:39;;;;;;;;;;;;;;;;;;1020795;28;3834;-76
2022/03/04 01:46:14;;;;;;;;;;;;;;;;;;1022423;28;1448;-75
2022/03/04 01:46:45;;;;;;;;;;;;;;;;;;1016433;29;3895;-74
2022/03/04 01:47:15;;;;;;;;;;;;;;;;;;1014553;29;3139;-75
2022/03/04 01:47:45;;;;;;;;;;;;;;;;;;1014244;29;4030;-75
2022/03/04 01:48:18;;;;;;;;;;;;;;;;;;1015008;29;2123;-75
2022/03/04 01:48:49;;;;;;;;;;;;;;;;;;1017446;29;3945;-75
2022/03/04 01:49:19;;;;;;;;;;;;;;;;;;1021398;28;3151;-75
2022/03/04 01:49:50;;;;;;;;;;;;;;;;;;1021247;28;3994;-75
2022/03/04 01:50:20;;;;;;;;;;;;;;;;;;1021534;28;2979;-75
2022/03/04 01:50:51;;;;;;;;;;;;;;;;;;1020857;28;3815;-74
2022/03/04 01:51:21;;;;;;;;;;;;;;;;;;1018796;29;1321;-74
2022/03/04 01:51:51;;;;;;;;;;;;;;;;;;1017616;29;3986;-75
2022/03/04 01:52:22;;;;;;;;;;;;;;;;;;1017294;29;2492;-74
2022/03/04 01:52:52;;;;;;;;;;;;;;;;;;1017025;29;3836;-75
2022/03/04 01:53:23;;;;;;;;;;;;;;;;;;1020888;28;2166;-75
2022/03/04 01:54:07;;;;;;;;;;;;;;;;;;1021602;28;4173;-74
2022/03/04 01:54:44;;;;;;;;;;;;;;;;;;1020867;28;4007;-75
2022/03/04 01:55:14;;;;;;;;;;;;;;;;;;1021577;28;2565;-75
2022/03/04 01:55:45;;;;;;;;;;;;;;;;;;1020521;28;3968;-76
2022/03/04 01:56:15;;;;;;;;;;;;;;;;;;1021245;29;2577;-76
2022/03/04 01:56:46;;;;;;;;;;;;;;;;;;1020632;28;4121;-75
2022/03/04 01:57:16;;;;;;;;;;;;;;;;;;1021440;28;2794;-75
2022/03/04 01:57:47;;;;;;;;;;;;;;;;;;1021659;28;3908;-74
2022/03/04 01:58:17;;;;;;;;;;;;;;;;;;1020689;28;3269;-76
2022/03/04 01:58:47;;;;;;;;;;;;;;;;;;1021153;28;3844;-75
2022/03/04 01:59:18;;;;;;;;;;;;;;;;;;1022051;29;2335;-74
2022/03/04 01:59:48;;;;;;;;;;;;;;;;;;1021646;28;3851;-75
2022/03/04 02:00:18;;;;;;;;;;;;;;;;;;1020872;29;2934;-74
2022/03/04 02:00:50;;;;;;;;;;;;;;;;;;1021771;28;4030;-75
2022/03/04 02:01:20;;;;;;;;;;;;;;;;;;1021008;29;2964;-75
2022/03/04 02:01:51;;;;;;;;;;;;;;;;;;1021988;28;3921;-74
2022/03/04 02:02:22;;;;;;;;;;;;;;;;;;1020835;29;2388;-75
2022/03/04 02:02:57;;;;;;;;;;;;;;;;;;1018161;29;4957;-75
2022/03/04 02:03:27;;;;;;;;;;;;;;;;;;1018208;29;2478;-75
2022/03/04 02:03:57;;;;;;;;;;;;;;;;;;1013477;29;3828;-75
2022/03/04 02:04:28;;;;;;;;;;;;;;;;;;1012403;29;3406;-75
2022/03/04 02:04:58;;;;;;;;;;;;;;;;;;1017721;29;3965;-75
2022/03/04 02:05:28;;;;;;;;;;;;;;;;;;1018572;29;1667;-75
2022/03/04 02:05:58;;;;;;;;;;;;;;;;;;1016485;29;4066;-74
2022/03/04 02:06:29;;;;;;;;;;;;;;;;;;1016906;29;2894;-75
2022/03/04 02:06:59;;;;;;;;;;;;;;;;;;1017263;29;3996;-76
2022/03/04 02:07:29;;;;;;;;;;;;;;;;;;1016502;29;2958;-74
2022/03/04 02:08:00;;;;;;;;;;;;;;;;;;1019875;28;3836;-75
2022/03/04 02:08:30;;;;;;;;;;;;;;;;;;1022717;28;2960;-75
2022/03/04 02:09:00;;;;;;;;;;;;;;;;;;1020543;28;4241;-75
2022/03/04 02:09:30;;;;;;;;;;;;;;;;;;1021477;28;2966;-75
2022/03/04 02:10:01;;;;;;;;;;;;;;;;;;1020780;28;3994;-75
2022/03/04 02:10:31;;;;;;;;;;;;;;;;;;1025497;28;2410;-75
2022/03/04 02:11:01;;;;;;;;;;;;;;;;;;1023196;28;3926;-75
2022/03/04 02:11:32;;;;;;;;;;;;;;;;;;1023115;28;2404;-75
2022/03/04 02:12:02;;;;;;;;;;;;;;;;;;1023485;28;3833;-75
2022/03/04 02:12:32;;;;;;;;;;;;;;;;;;1020664;28;2851;-75
2022/03/04 02:13:03;;;;;;;;;;;;;;;;;;1020467;28;3834;-75
2022/03/04 02:13:35;;;;;;;;;;;;;;;;;;1020517;29;2886;-75
2022/03/04 02:14:05;;;;;;;;;;;;;;;;;;1017579;29;3963;-75
2022/03/04 02:14:35;;;;;;;;;;;;;;;;;;1013430;29;2917;-76
2022/03/04 02:15:06;;;;;;;;;;;;;;;;;;1011687;29;3838;-75
2022/03/04 02:15:37;;;;;;;;;;;;;;;;;;1013417;29;2200;-74
2022/03/04 02:16:10;;;;;;;;;;;;;;;;;;1016784;29;4030;-75
2022/03/04 02:16:40;;;;;;;;;;;;;;;;;;1020655;29;3936;-75
2022/03/04 02:17:11;;;;;;;;;;;;;;;;;;1021849;29;2557;-75
2022/03/04 02:17:41;;;;;;;;;;;;;;;;;;1021587;29;3862;-76
2022/03/04 02:18:15;;;;;;;;;;;;;;;;;;1020782;29;2875;-75
2022/03/04 02:18:46;;;;;;;;;;;;;;;;;;1021430;28;3918;-76
2022/03/04 02:19:17;;;;;;;;;;;;;;;;;;1021869;29;2940;-76
2022/03/04 02:19:51;;;;;;;;;;;;;;;;;;1019925;28;4040;-76
2022/03/04 02:20:22;;;;;;;;;;;;;;;;;;1021860;29;2319;-75
2022/03/04 02:20:52;;;;;;;;;;;;;;;;;;1021178;28;4251;-75
2022/03/04 02:21:23;;;;;;;;;;;;;;;;;;1021774;29;1958;-75
2022/03/04 02:22:00;;;;;;;;;;;;;;;;;;1021986;28;4092;-75
2022/03/04 02:22:31;;;;;;;;;;;;;;;;;;1021315;29;2624;-76
2022/03/04 02:23:01;;;;;;;;;;;;;;;;;;1021519;28;4020;-76
2022/03/04 02:23:32;;;;;;;;;;;;;;;;;;1023862;28;3064;-76
2022/03/04 02:24:04;;;;;;;;;;;;;;;;;;1020256;28;4000;-75
2022/03/04 02:24:34;;;;;;;;;;;;;;;;;;1018715;29;2766;-76
2022/03/04 02:25:05;;;;;;;;;;;;;;;;;;1015254;29;3893;-75
2022/03/04 02:25:35;;;;;;;;;;;;;;;;;;1018189;29;2205;-76
2022/03/04 02:26:06;;;;;;;;;;;;;;;;;;1016697;29;3832;-76
2022/03/04 02:26:36;;;;;;;;;;;;;;;;;;1021371;29;2862;-76
2022/03/04 02:27:08;;;;;;;;;;;;;;;;;;1020111;28;3980;-76
2022/03/04 02:27:38;;;;;;;;;;;;;;;;;;1021647;28;2817;-75
2022/03/04 02:28:16;;;;;;;;;;;;;;;;;;1016642;29;4102;-76
2022/03/04 02:28:46;;;;;;;;;;;;;;;;;;1017152;29;3840;-75
2022/03/04 02:29:17;;;;;;;;;;;;;;;;;;1016283;29;2552;-75
2022/03/04 02:29:48;;;;;;;;;;;;;;;;;;1018524;29;3813;-75
2022/03/04 02:30:18;;;;;;;;;;;;;;;;;;1019909;28;3009;-76
2022/03/04 02:30:48;;;;;;;;;;;;;;;;;;1018527;29;3923;-76
2022/03/04 02:31:20;;;;;;;;;;;;;;;;;;1017630;29;3098;-76
2022/03/04 02:31:50;;;;;;;;;;;;;;;;;;1015527;29;3855;-75
2022/03/04 02:32:21;;;;;;;;;;;;;;;;;;1017370;29;2536;-75
2022/03/04 02:32:51;;;;;;;;;;;;;;;;;;1017649;29;3828;-75
2022/03/04 02:33:21;;;;;;;;;;;;;;;;;;1021042;28;2474;-77
2022/03/04 02:33:52;;;;;;;;;;;;;;;;;;1019727;28;4314;-75
2022/03/04 02:34:22;;;;;;;;;;;;;;;;;;1022303;29;2476;-76
2022/03/04 02:34:52;;;;;;;;;;;;;;;;;;1021701;28;3850;-76
2022/03/04 02:35:23;;;;;;;;;;;;;;;;;;1020273;29;2838;-76
2022/03/04 02:35:53;;;;;;;;;;;;;;;;;;1021655;28;3849;-75
2022/03/04 02:36:23;;;;;;;;;;;;;;;;;;1021348;29;2846;-76
2022/03/04 02:36:53;;;;;;;;;;;;;;;;;;1021888;28;4025;-76
2022/03/04 02:37:24;;;;;;;;;;;;;;;;;;1020489;28;2956;-76
2022/03/04 02:37:54;;;;;;;;;;;;;;;;;;1022240;29;3894;-76
2022/03/04 02:38:24;;;;;;;;;;;;;;;;;;1021205;28;2769;-76
2022/03/04 02:38:55;;;;;;;;;;;;;;;;;;1020678;28;4023;-75
2022/03/04 02:39:25;;;;;;;;;;;;;;;;;;1021855;28;3377;-75
2022/03/04 02:39:55;;;;;;;;;;;;;;;;;;1021829;28;3846;-75
2022/03/04 02:40:26;;;;;;;;;;;;;;;;;;1021409;29;2513;-74
2022/03/04 02:40:56;;;;;;;;;;;;;;;;;;1020756;28;3986;-75
2022/03/04 02:41:26;;;;;;;;;;;;;;;;;;1022216;28;2809;-75
2022/03/04 02:41:56;;;;;;;;;;;;;;;;;;1020454;28;3849;-75
2022/03/04 02:42:27;;;;;;;;;;;;;;;;;;1021330;29;3138;-75
2022/03/04 02:42:57;;;;;;;;;;;;;;;;;;1021502;28;3957;-75
2022/03/04 02:43:27;;;;;;;;;;;;;;;;;;1020640;29;2955;-75
2022/03/04 02:43:57;;;;;;;;;;;;;;;;;;1019299;28;3908;-75
2022/03/04 02:44:28;;;;;;;;;;;;;;;;;;1022003;28;2766;-76
2022/03/04 02:44:58;;;;;;;;;;;;;;;;;;1020231;28;3935;-75
2022/03/04 02:45:28;;;;;;;;;;;;;;;;;;1020669;28;2635;-75
2022/03/04 02:45:58;;;;;;;;;;;;;;;;;;1021109;28;3862;-75
2022/03/04 02:46:29;;;;;;;;;;;;;;;;;;1021542;28;2440;-75
2022/03/04 02:46:59;;;;;;;;;;;;;;;;;;1020447;28;3840;-76
2022/03/04 02:47:29;;;;;;;;;;;;;;;;;;1021427;28;2596;-75
2022/03/04 02:47:59;;;;;;;;;;;;;;;;;;1020741;28;3847;-75
2022/03/04 02:48:30;;;;;;;;;;;;;;;;;;1020830;28;2543;-75
2022/03/04 02:49:00;;;;;;;;;;;;;;;;;;1021327;28;3976;-75
2022/03/04 02:49:30;;;;;;;;;;;;;;;;;;1022057;28;2114;-74
2022/03/04 02:50:07;;;;;;;;;;;;;;;;;;1020772;28;3861;-75
2022/03/04 02:50:37;;;;;;;;;;;;;;;;;;1022022;28;2898;-76
2022/03/04 02:51:08;;;;;;;;;;;;;;;;;;1018688;28;4103;-75
2022/03/04 02:51:38;;;;;;;;;;;;;;;;;;1021674;29;2755;-75
2022/03/04 02:52:15;;;;;;;;;;;;;;;;;;1021144;29;3831;-75
2022/03/04 02:52:45;;;;;;;;;;;;;;;;;;1022079;28;4756;-75
2022/03/04 02:53:15;;;;;;;;;;;;;;;;;;1020485;28;2920;-76
2022/03/04 02:53:59;;;;;;;;;;;;;;;;;;1021357;28;4013;-75
2022/03/04 02:54:29;;;;;;;;;;;;;;;;;;1018342;29;2539;-75
2022/03/04 02:54:59;;;;;;;;;;;;;;;;;;1015933;29;4116;-76
2022/03/04 02:55:29;;;;;;;;;;;;;;;;;;1017166;29;2896;-75
2022/03/04 02:56:00;;;;;;;;;;;;;;;;;;1015764;29;3861;-75
2022/03/04 02:56:30;;;;;;;;;;;;;;;;;;1021248;29;2703;-75
2022/03/04 02:57:01;;;;;;;;;;;;;;;;;;1020310;28;3823;-75
2022/03/04 02:57:31;;;;;;;;;;;;;;;;;;1022258;28;1648;-74
2022/03/04 02:58:02;;;;;;;;;;;;;;;;;;1021828;28;3879;-75
2022/03/04 02:58:32;;;;;;;;;;;;;;;;;;1017853;29;2538;-76
2022/03/04 02:59:03;;;;;;;;;;;;;;;;;;1015381;29;3891;-74
2022/03/04 02:59:33;;;;;;;;;;;;;;;;;;1016976;29;3077;-76
2022/03/04 03:00:04;;;;;;;;;;;;;;;;;;1015746;29;4060;-75
2022/03/04 03:00:35;;;;;;;;;;;;;;;;;;1021561;28;2628;-75
2022/03/04 03:01:05;;;;;;;;;;;;;;;;;;1021062;28;3960;-75
2022/03/04 03:01:36;;;;;;;;;;;;;;;;;;1022646;28;1737;-76
2022/03/04 03:02:06;;;;;;;;;;;;;;;;;;1015925;29;3978;-75
2022/03/04 03:02:37;;;;;;;;;;;;;;;;;;1018526;29;2471;-75
2022/03/04 03:03:07;;;;;;;;;;;;;;;;;;1015924;29;4149;-75
2022/03/04 03:03:37;;;;;;;;;;;;;;;;;;1018672;29;2011;-76
2022/03/04 03:04:07;;;;;;;;;;;;;;;;;;1021138;28;3762;-75
2022/03/04 03:04:38;;;;;;;;;;;;;;;;;;1020463;28;2766;-75
2022/03/04 03:05:09;;;;;;;;;;;;;;;;;;1021356;28;3891;-75
2022/03/04 03:05:39;;;;;;;;;;;;;;;;;;1020842;28;3843;-75
2022/03/04 03:06:10;;;;;;;;;;;;;;;;;;1021026;29;2570;-76
2022/03/04 03:06:40;;;;;;;;;;;;;;;;;;1021293;28;3831;-75
2022/03/04 03:07:11;;;;;;;;;;;;;;;;;;1022090;28;2134;-75
2022/03/04 03:07:41;;;;;;;;;;;;;;;;;;1020271;28;3838;-76
2022/03/04 03:08:12;;;;;;;;;;;;;;;;;;1021001;28;2897;-75
2022/03/04 03:08:43;;;;;;;;;;;;;;;;;;1020779;29;3833;-75
2022/03/04 03:09:13;;;;;;;;;;;;;;;;;;1020699;28;2766;-75
2022/03/04 03:09:43;;;;;;;;;;;;;;;;;;1021217;28;3995;-75
2022/03/04 03:10:14;;;;;;;;;;;;;;;;;;1020804;28;3024;-75
2022/03/04 03:10:45;;;;;;;;;;;;;;;;;;1021907;28;3832;-74
2022/03/04 03:11:15;;;;;;;;;;;;;;;;;;1021559;28;2656;-74
2022/03/04 03:11:45;;;;;;;;;;;;;;;;;;1021471;28;4125;-75
2022/03/04 03:12:15;;;;;;;;;;;;;;;;;;1021031;28;2576;-76
2022/03/04 03:12:46;;;;;;;;;;;;;;;;;;1021829;28;3893;-75
2022/03/04 03:13:16;;;;;;;;;;;;;;;;;;1021651;28;3020;-75
2022/03/04 03:13:46;;;;;;;;;;;;;;;;;;1020560;28;3857;-75
2022/03/04 03:14:16;;;;;;;;;;;;;;;;;;1022025;28;3041;-75
2022/03/04 03:14:47;;;;;;;;;;;;;;;;;;1020821;28;3908;-76
2022/03/04 03:15:17;;;;;;;;;;;;;;;;;;1021746;28;2118;-75
2022/03/04 03:15:47;;;;;;;;;;;;;;;;;;1020462;28;3843;-75
2022/03/04 03:16:18;;;;;;;;;;;;;;;;;;1022602;28;2043;-74
2022/03/04 03:16:48;;;;;;;;;;;;;;;;;;1021652;28;4008;-75
2022/03/04 03:17:18;;;;;;;;;;;;;;;;;;1021216;28;2484;-75
2022/03/04 03:17:48;;;;;;;;;;;;;;;;;;1020519;28;3848;-76
2022/03/04 03:18:19;;;;;;;;;;;;;;;;;;1021222;28;2693;-75
2022/03/04 03:18:49;;;;;;;;;;;;;;;;;;1021086;28;4059;-75
2022/03/04 03:19:19;;;;;;;;;;;;;;;;;;1021527;29;3334;-75
2022/03/04 03:19:49;;;;;;;;;;;;;;;;;;1019737;28;4382;-75
2022/03/04 03:20:20;;;;;;;;;;;;;;;;;;1020714;28;2996;-75
2022/03/04 03:20:50;;;;;;;;;;;;;;;;;;1022123;28;4082;-75
2022/03/04 03:21:20;;;;;;;;;;;;;;;;;;1021670;28;2701;-75
2022/03/04 03:21:51;;;;;;;;;;;;;;;;;;1022835;28;3972;-75
2022/03/04 03:22:21;;;;;;;;;;;;;;;;;;1022621;28;3118;-75
2022/03/04 03:22:52;;;;;;;;;;;;;;;;;;1022674;28;4009;-75
2022/03/04 03:23:22;;;;;;;;;;;;;;;;;;1022144;28;2671;-73
2022/03/04 03:23:52;;;;;;;;;;;;;;;;;;1022673;29;3997;-75
2022/03/04 03:24:22;;;;;;;;;;;;;;;;;;1018176;29;2421;-75
2022/03/04 03:24:52;;;;;;;;;;;;;;;;;;1016730;29;3814;-75
2022/03/04 03:25:23;;;;;;;;;;;;;;;;;;1018878;29;1677;-74
2022/03/04 03:25:53;;;;;;;;;;;;;;;;;;1017953;29;3825;-75
2022/03/04 03:26:23;;;;;;;;;;;;;;;;;;1022868;28;2714;-75
2022/03/04 03:26:53;;;;;;;;;;;;;;;;;;1017759;29;3993;-76
2022/03/04 03:27:24;;;;;;;;;;;;;;;;;;1018209;29;1341;-75
2022/03/04 03:27:54;;;;;;;;;;;;;;;;;;1017892;29;4153;-75
2022/03/04 03:28:24;;;;;;;;;;;;;;;;;;1017741;29;2407;-76
2022/03/04 03:28:55;;;;;;;;;;;;;;;;;;1021651;28;4070;-74
2022/03/04 03:29:25;;;;;;;;;;;;;;;;;;1017761;29;3043;-75
2022/03/04 03:29:55;;;;;;;;;;;;;;;;;;1018372;29;3998;-75
2022/03/04 03:30:26;;;;;;;;;;;;;;;;;;1017752;29;2193;-75
2022/03/04 03:30:56;;;;;;;;;;;;;;;;;;1017476;29;3855;-75
2022/03/04 03:31:27;;;;;;;;;;;;;;;;;;1021180;28;2538;-75
2022/03/04 03:31:57;;;;;;;;;;;;;;;;;;1021118;28;3970;-76
2022/03/04 03:32:27;;;;;;;;;;;;;;;;;;1022168;28;2170;-75
2022/03/04 03:32:57;;;;;;;;;;;;;;;;;;1020604;28;4000;-75
2022/03/04 03:33:28;;;;;;;;;;;;;;;;;;1022380;29;3055;-75
2022/03/04 03:33:58;;;;;;;;;;;;;;;;;;1020356;28;3820;-75